createdAt,value
2023-05-05T00:01:03.901Z,98264.00
2023-05-05T00:03:34.578Z,98265.39
2023-05-05T00:06:03.184Z,98257.14
2023-05-05T00:08:31.628Z,98252.55
2023-05-05T00:10:59.771Z,98247.35
2023-05-05T00:13:27.896Z,98242.99
2023-05-05T00:15:56.283Z,98240.46
2023-05-05T00:18:24.359Z,98240.78
2023-05-05T00:20:52.691Z,98246.91
2023-05-05T00:23:21.112Z,98255.11
2023-05-05T00:25:49.112Z,98258.87
2023-05-05T00:28:18.531Z,98258.07
2023-05-05T00:30:46.723Z,98253.27
2023-05-05T00:33:15.248Z,98251.09
2023-05-05T00:35:43.674Z,98252.39
2023-05-05T00:38:14.479Z,98247.66
2023-05-05T00:40:43.178Z,98247.98
2023-05-05T00:43:13.086Z,98249.35
2023-05-05T00:45:44.364Z,98249.51
2023-05-05T00:48:12.761Z,98245.69
2023-05-05T00:50:44.597Z,98241.71
2023-05-05T00:53:13.854Z,98245.77
2023-05-05T00:55:42.305Z,98248.98
2023-05-05T00:58:11.469Z,98251.13
2023-05-05T01:00:39.821Z,98254.23
2023-05-05T01:03:08.461Z,98249.18
2023-05-05T01:06:05.637Z,98249.57
2023-05-05T01:08:42.873Z,98253.81
2023-05-05T01:11:27.106Z,98255.23
2023-05-05T01:14:02.147Z,98250.45
2023-05-05T01:16:34.621Z,98249.59
2023-05-05T01:19:22.334Z,98251.19
2023-05-05T01:22:02.512Z,98246.73
2023-05-05T01:24:30.498Z,98248.79
2023-05-05T01:27:06.635Z,98247.74
2023-05-05T01:30:00.045Z,98245.54
2023-05-05T01:32:36.186Z,98246.27
2023-05-05T01:35:07.537Z,98243.27
2023-05-05T01:37:47.735Z,98245.06
2023-05-05T01:40:20.176Z,98245.36
2023-05-05T01:42:49.274Z,98245.51
2023-05-05T01:45:20.392Z,98245.66
2023-05-05T01:47:49.274Z,98243.48
2023-05-05T01:50:19.655Z,98245.19
2023-05-05T01:52:49.138Z,98246.95
2023-05-05T01:55:19.792Z,98246.23
2023-05-05T01:57:50.379Z,98246.25
2023-05-05T02:00:20.340Z,98244.56
2023-05-05T02:02:50.419Z,98243.67
2023-05-05T02:05:22.039Z,98242.84
2023-05-05T02:07:53.339Z,98241.98
2023-05-05T02:10:21.856Z,98245.26
2023-05-05T02:12:52.405Z,98241.95
2023-05-05T02:15:23.799Z,98243.02
2023-05-05T02:17:53.217Z,98241.61
2023-05-05T02:20:22.717Z,98242.54
2023-05-05T02:22:50.955Z,98246.45
2023-05-05T02:25:19.124Z,98243.83
2023-05-05T02:27:50.666Z,98245.00
2023-05-05T02:30:21.084Z,98248.64
2023-05-05T02:33:06.768Z,98247.70
2023-05-05T02:35:44.018Z,98250.86
2023-05-05T02:38:17.630Z,98248.67
2023-05-05T02:40:49.994Z,98246.50
2023-05-05T02:43:22.041Z,98246.63
2023-05-05T02:45:50.610Z,98247.87
2023-05-05T02:48:21.152Z,98248.38
2023-05-05T02:50:50.354Z,98251.78
2023-05-05T02:53:29.597Z,98249.84
2023-05-05T02:56:21.072Z,98249.48
2023-05-05T02:59:16.677Z,98248.39
2023-05-05T03:02:08.492Z,98248.81
2023-05-05T03:04:46.031Z,98254.45
2023-05-05T03:07:26.467Z,98258.21
2023-05-05T03:10:06.598Z,98259.23
2023-05-05T03:12:47.075Z,98260.96
2023-05-05T03:15:31.543Z,98263.02
2023-05-05T03:18:01.786Z,98263.06
2023-05-05T03:20:31.232Z,98259.52
2023-05-05T03:23:02.822Z,98261.04
2023-05-05T03:25:48.845Z,98262.45
2023-05-05T03:28:37.177Z,98262.84
2023-05-05T03:31:12.352Z,98264.90
2023-05-05T03:33:40.850Z,98266.55
2023-05-05T03:36:09.077Z,98268.75
2023-05-05T03:38:37.268Z,98267.88
2023-05-05T03:41:05.988Z,98266.45
2023-05-05T03:43:34.645Z,98270.16
2023-05-05T03:46:03.467Z,98276.36
2023-05-05T03:48:32.077Z,98281.50
2023-05-05T03:51:00.602Z,98279.45
2023-05-05T03:53:29.816Z,98282.55
2023-05-05T03:55:58.548Z,98284.85
2023-05-05T03:58:27.042Z,98283.52
2023-05-05T04:00:55.186Z,98286.67
2023-05-05T04:03:23.812Z,98285.59
2023-05-05T04:05:52.116Z,98286.32
2023-05-05T04:08:21.175Z,98289.55
2023-05-05T04:10:49.344Z,98295.30
2023-05-05T04:13:17.579Z,98293.01
2023-05-05T04:15:46.518Z,98297.17
2023-05-05T04:18:15.546Z,98298.16
2023-05-05T04:20:44.495Z,98299.23
2023-05-05T04:23:12.922Z,98297.14
2023-05-05T04:25:41.424Z,98296.78
2023-05-05T04:28:10.786Z,98299.41
2023-05-05T04:30:39.533Z,98301.27
2023-05-05T04:33:07.718Z,98304.73
2023-05-05T04:35:35.862Z,98307.59
2023-05-05T04:38:03.978Z,98307.08
2023-05-05T04:40:32.311Z,98308.54
2023-05-05T04:43:00.688Z,98308.33
2023-05-05T04:45:29.767Z,98306.73
2023-05-05T04:47:57.886Z,98307.34
2023-05-05T04:50:26.105Z,98308.85
2023-05-05T04:52:54.426Z,98309.01
2023-05-05T04:55:22.513Z,98312.70
2023-05-05T04:57:50.737Z,98311.27
2023-05-05T05:00:18.955Z,98313.13
2023-05-05T05:02:47.420Z,98318.15
2023-05-05T05:05:15.634Z,98322.63
2023-05-05T05:07:44.140Z,98323.77
2023-05-05T05:10:12.230Z,98325.34
2023-05-05T05:12:40.682Z,98329.96
2023-05-05T05:15:09.916Z,98337.73
2023-05-05T05:17:38.146Z,98338.73
2023-05-05T05:20:07.573Z,98333.01
2023-05-05T05:22:38.805Z,98331.48
2023-05-05T05:25:09.019Z,98333.20
2023-05-05T05:27:37.819Z,98334.61
2023-05-05T05:30:07.179Z,98337.96
2023-05-05T05:32:36.145Z,98341.07
2023-05-05T05:35:05.101Z,98337.23
2023-05-05T05:37:37.109Z,98336.09
2023-05-05T05:40:06.913Z,98335.31
2023-05-05T05:42:35.504Z,98338.55
2023-05-05T05:45:04.718Z,98341.84
2023-05-05T05:47:33.240Z,98343.34
2023-05-05T05:50:01.844Z,98339.45
2023-05-05T05:52:31.350Z,98345.44
2023-05-05T05:54:59.440Z,98345.06
2023-05-05T05:57:27.973Z,98346.61
2023-05-05T05:59:56.904Z,98344.87
2023-05-05T06:02:27.236Z,98341.45
2023-05-05T06:04:56.099Z,98339.54
2023-05-05T06:07:24.386Z,98341.16
2023-05-05T06:09:52.468Z,98344.21
2023-05-05T06:12:21.105Z,98341.71
2023-05-05T06:14:49.460Z,98343.98
2023-05-05T06:17:17.540Z,98350.45
2023-05-05T06:19:45.743Z,98351.60
2023-05-05T06:22:13.957Z,98347.73
2023-05-05T06:24:42.214Z,98351.57
2023-05-05T06:27:10.640Z,98354.63
2023-05-05T06:29:38.798Z,98350.55
2023-05-05T06:32:08.512Z,98354.52
2023-05-05T06:34:36.591Z,98356.02
2023-05-05T06:37:04.765Z,98352.89
2023-05-05T06:39:32.761Z,98349.78
2023-05-05T06:42:02.116Z,98348.37
2023-05-05T06:44:31.263Z,98343.30
2023-05-05T06:46:59.480Z,98344.98
2023-05-05T06:49:27.727Z,98344.21
2023-05-05T06:51:57.803Z,98343.76
2023-05-05T06:54:28.119Z,98343.48
2023-05-05T06:56:58.190Z,98338.02
2023-05-05T06:59:27.610Z,98338.20
2023-05-05T07:01:56.594Z,98335.66
2023-05-05T07:04:24.810Z,98333.05
2023-05-05T07:06:53.027Z,98331.81
2023-05-05T07:09:21.495Z,98330.95
2023-05-05T07:11:49.742Z,98328.65
2023-05-05T07:14:18.126Z,98329.46
2023-05-05T07:16:46.543Z,98329.40
2023-05-05T07:19:14.642Z,98326.80
2023-05-05T07:21:42.862Z,98324.02
2023-05-05T07:24:11.146Z,98324.77
2023-05-05T07:26:39.293Z,98326.23
2023-05-05T07:29:08.017Z,98326.69
2023-05-05T07:31:36.075Z,98326.61
2023-05-05T07:34:04.509Z,98327.77
2023-05-05T07:36:33.095Z,98324.38
2023-05-05T07:39:01.889Z,98319.86
2023-05-05T07:41:30.096Z,98318.16
2023-05-05T07:43:58.364Z,98314.85
2023-05-05T07:46:27.077Z,98314.40
2023-05-05T07:48:57.287Z,98312.48
2023-05-05T07:51:26.632Z,98306.77
2023-05-05T07:53:56.850Z,98302.48
2023-05-05T07:56:25.670Z,98298.33
2023-05-05T07:58:53.870Z,98301.16
2023-05-05T08:01:21.996Z,98298.45
2023-05-05T08:03:50.177Z,98300.90
2023-05-05T08:06:22.425Z,98300.48
2023-05-05T08:08:51.305Z,98300.66
2023-05-05T08:11:20.877Z,98300.55
2023-05-05T08:13:49.397Z,98300.54
2023-05-05T08:16:17.711Z,98304.33
2023-05-05T08:18:46.310Z,98304.75
2023-05-05T08:21:14.403Z,98301.30
2023-05-05T08:23:42.561Z,98300.46
2023-05-05T08:26:10.788Z,98298.80
2023-05-05T08:28:39.061Z,98298.98
2023-05-05T08:31:09.135Z,98293.27
2023-05-05T08:33:37.401Z,98292.77
2023-05-05T08:36:05.870Z,98298.16
2023-05-05T08:38:34.037Z,98295.22
2023-05-05T08:41:02.189Z,98293.69
2023-05-05T08:43:30.501Z,98293.36
2023-05-05T08:45:59.844Z,98288.67
2023-05-05T08:48:30.001Z,98287.50
2023-05-05T08:51:01.366Z,98290.65
2023-05-05T08:53:45.981Z,98290.33
2023-05-05T08:56:18.036Z,98289.69
2023-05-05T08:58:48.401Z,98289.45
2023-05-05T09:01:18.050Z,98291.34
2023-05-05T09:03:46.331Z,98288.99
2023-05-05T09:06:16.230Z,98287.64
2023-05-05T09:08:45.164Z,98283.30
2023-05-05T09:11:15.733Z,98284.15
2023-05-05T09:13:44.110Z,98278.44
2023-05-05T09:16:12.265Z,98277.55
2023-05-05T09:18:42.708Z,98279.31
2023-05-05T09:21:24.920Z,98281.55
2023-05-05T09:24:09.073Z,98276.11
2023-05-05T09:26:46.596Z,98274.41
2023-05-05T09:29:21.906Z,98277.21
2023-05-05T09:32:10.951Z,98272.82
2023-05-05T09:34:39.204Z,98265.55
2023-05-05T09:37:08.232Z,98259.64
2023-05-05T09:39:36.722Z,98258.20
2023-05-05T09:42:05.080Z,98262.73
2023-05-05T09:44:35.748Z,98259.92
2023-05-05T09:47:09.413Z,98251.17
2023-05-05T09:49:43.169Z,98254.58
2023-05-05T09:52:17.882Z,98254.10
2023-05-05T09:54:54.259Z,98247.70
2023-05-05T09:57:27.970Z,98240.09
2023-05-05T10:00:04.255Z,98239.30
2023-05-05T10:02:36.383Z,98237.41
2023-05-05T10:05:16.151Z,98233.41
2023-05-05T10:07:46.739Z,98234.28
2023-05-05T10:10:17.116Z,98233.08
2023-05-05T10:12:50.042Z,98231.20
2023-05-05T10:15:18.709Z,98231.08
2023-05-05T10:20:25.275Z,98228.18
2023-05-05T10:22:57.679Z,98222.92
2023-05-05T10:25:33.811Z,98218.97
2023-05-05T10:28:06.825Z,98220.94
2023-05-05T10:30:41.321Z,98218.34
2023-05-05T10:33:30.398Z,98215.92
2023-05-05T10:36:06.668Z,98218.73
2023-05-05T10:38:36.209Z,98211.65
2023-05-05T10:41:05.788Z,98208.17
2023-05-05T10:43:34.296Z,98204.88
2023-05-05T10:46:04.817Z,98208.40
2023-05-05T10:48:36.506Z,98204.45
2023-05-05T10:51:10.930Z,98203.20
2023-05-05T10:53:52.203Z,98203.17
2023-05-05T10:56:28.149Z,98200.95
2023-05-05T10:59:00.271Z,98198.65
2023-05-05T11:01:36.537Z,98195.81
2023-05-05T11:04:18.256Z,98192.52
2023-05-05T11:07:27.133Z,98190.10
2023-05-05T11:09:57.470Z,98192.31
2023-05-05T11:12:25.756Z,98191.30
2023-05-05T11:15:31.169Z,98189.36
2023-05-05T11:18:05.889Z,98184.86
2023-05-05T11:20:35.129Z,98179.52
2023-05-05T11:23:03.340Z,98177.02
2023-05-05T11:25:38.180Z,98171.11
2023-05-05T11:28:17.551Z,98171.06
2023-05-05T11:30:55.291Z,98166.27
2023-05-05T11:33:38.611Z,98164.88
2023-05-05T11:36:12.218Z,98159.60
2023-05-05T11:38:46.495Z,98157.95
2023-05-05T11:41:32.990Z,98155.50
2023-05-05T11:44:15.847Z,98154.44
2023-05-05T11:46:53.208Z,98154.36
2023-05-05T11:49:31.703Z,98150.76
2023-05-05T11:52:02.586Z,98148.17
2023-05-05T11:54:31.548Z,98143.23
2023-05-05T11:57:09.292Z,98142.94
2023-05-05T11:59:59.811Z,98144.16
2023-05-05T12:02:30.048Z,98140.06
2023-05-05T12:05:00.181Z,98136.27
2023-05-05T12:07:31.786Z,98130.24
2023-05-05T12:10:00.923Z,98125.91
2023-05-05T12:12:40.714Z,98123.50
2023-05-05T12:15:10.434Z,98128.67
2023-05-05T12:17:42.815Z,98124.11
2023-05-05T12:20:12.278Z,98121.29
2023-05-05T12:22:41.134Z,98121.08
2023-05-05T12:25:09.928Z,98118.75
2023-05-05T12:27:40.396Z,98115.95
2023-05-05T12:30:14.633Z,98111.95
2023-05-05T12:32:43.658Z,98106.27
2023-05-05T12:35:13.004Z,98106.31
2023-05-05T12:37:42.252Z,98102.38
2023-05-05T12:40:49.709Z,98100.60
2023-05-05T12:43:36.036Z,98099.52
2023-05-05T12:46:10.414Z,98095.73
2023-05-05T12:48:40.826Z,98091.39
2023-05-05T12:51:17.620Z,98089.20
2023-05-05T12:53:47.654Z,98081.77
2023-05-05T12:56:35.711Z,98085.20
2023-05-05T12:59:08.197Z,98080.40
2023-05-05T13:01:38.143Z,98081.61
2023-05-05T13:04:10.878Z,98078.60
2023-05-05T13:07:02.853Z,98077.74
2023-05-05T13:09:30.971Z,98074.74
2023-05-05T13:11:59.201Z,98071.46
2023-05-05T13:14:27.304Z,98064.92
2023-05-05T13:16:55.665Z,98064.88
2023-05-05T13:19:27.746Z,98060.98
2023-05-05T13:21:57.553Z,98058.02
2023-05-05T13:24:42.337Z,98059.15
2023-05-05T13:27:14.945Z,98057.05
2023-05-05T13:29:43.868Z,98051.92
2023-05-05T13:32:12.033Z,98049.92
2023-05-05T13:34:40.300Z,98050.30
2023-05-05T13:37:08.755Z,98046.62
2023-05-05T13:39:37.070Z,98040.21
2023-05-05T13:42:07.563Z,98037.82
2023-05-05T13:44:37.126Z,98039.41
2023-05-05T13:47:05.799Z,98036.02
2023-05-05T13:49:35.990Z,98035.77
2023-05-05T13:52:04.115Z,98034.92
2023-05-05T13:54:32.513Z,98030.21
2023-05-05T13:57:00.590Z,98026.80
2023-05-05T13:59:28.652Z,98026.13
2023-05-05T14:01:56.800Z,98022.49
2023-05-05T14:04:25.271Z,98020.16
2023-05-05T14:06:53.599Z,98013.60
2023-05-05T14:09:21.956Z,98015.73
2023-05-05T14:11:50.244Z,98015.92
2023-05-05T14:14:19.792Z,98012.29
2023-05-05T14:16:49.986Z,98012.24
2023-05-05T14:19:20.959Z,98010.40
2023-05-05T14:21:49.110Z,98011.54
2023-05-05T14:24:17.250Z,98008.08
2023-05-05T14:26:45.485Z,98000.90
2023-05-05T14:29:13.638Z,98002.78
2023-05-05T14:31:41.827Z,98001.02
2023-05-05T14:34:10.090Z,97999.30
2023-05-05T14:36:38.230Z,97994.52
2023-05-05T14:39:06.407Z,97992.75
2023-05-05T14:41:34.655Z,97994.95
2023-05-05T14:44:02.772Z,97996.50
2023-05-05T14:46:31.779Z,97992.52
2023-05-05T14:49:00.240Z,97987.55
2023-05-05T14:51:28.387Z,97986.78
2023-05-05T14:53:56.491Z,97986.96
2023-05-05T14:56:26.620Z,97988.61
2023-05-05T14:58:54.833Z,97986.91
2023-05-05T15:01:24.912Z,97983.73
2023-05-05T15:03:54.115Z,97983.59
2023-05-05T15:06:22.488Z,97984.25
2023-05-05T15:08:50.565Z,97987.33
2023-05-05T15:11:18.724Z,97983.81
2023-05-05T15:13:46.964Z,97980.05
2023-05-05T15:16:15.299Z,97978.02
2023-05-05T15:18:43.482Z,97977.10
2023-05-05T15:21:11.660Z,97974.02
2023-05-05T15:23:39.794Z,97973.82
2023-05-05T15:26:07.904Z,97967.05
2023-05-05T15:28:36.199Z,97973.58
2023-05-05T15:31:06.101Z,97971.02
2023-05-05T15:33:34.850Z,97971.35
2023-05-05T15:36:02.988Z,97969.00
2023-05-05T15:38:31.447Z,97966.86
2023-05-05T15:41:00.132Z,97968.48
2023-05-05T15:43:28.219Z,97964.64
2023-05-05T15:45:56.351Z,97963.80
2023-05-05T15:48:24.806Z,97963.83
2023-05-05T15:50:52.921Z,97961.77
2023-05-05T15:53:21.102Z,97961.52
2023-05-05T15:55:49.701Z,97958.73
2023-05-05T15:58:18.514Z,97956.78
2023-05-05T16:00:46.569Z,97952.04
2023-05-05T16:03:14.812Z,97951.16
2023-05-05T16:05:51.778Z,97951.27
2023-05-05T16:08:20.062Z,97951.12
2023-05-05T16:10:48.144Z,97950.27
2023-05-05T16:13:16.465Z,97949.23
2023-05-05T16:15:44.841Z,97948.01
2023-05-05T16:18:13.037Z,97947.91
2023-05-05T16:20:41.291Z,97948.18
2023-05-05T16:23:09.484Z,97944.26
2023-05-05T16:25:37.784Z,97945.09
2023-05-05T16:28:06.135Z,97945.54
2023-05-05T16:30:34.299Z,97947.52
2023-05-05T16:33:02.536Z,97947.16
2023-05-05T16:35:30.754Z,97948.00
2023-05-05T16:37:58.977Z,97946.99
2023-05-05T16:40:27.094Z,97947.29
2023-05-05T16:42:55.602Z,97947.28
2023-05-05T16:45:24.455Z,97948.06
2023-05-05T16:47:52.714Z,97949.92
2023-05-05T16:50:22.302Z,97951.52
2023-05-05T16:52:51.537Z,97956.60
2023-05-05T16:55:19.869Z,97959.29
2023-05-05T16:57:48.336Z,97958.34
2023-05-05T17:00:16.782Z,97960.63
2023-05-05T17:02:44.917Z,97963.40
2023-05-05T17:05:13.439Z,97960.29
2023-05-05T17:07:41.767Z,97960.90
2023-05-05T17:10:10.320Z,97963.04
2023-05-05T17:12:38.475Z,97963.65
2023-05-05T17:15:08.092Z,97965.09
2023-05-05T17:17:36.551Z,97956.63
2023-05-05T17:20:05.293Z,97957.77
2023-05-05T17:22:33.513Z,97956.89
2023-05-05T17:25:01.721Z,97957.57
2023-05-05T17:27:29.862Z,97955.31
2023-05-05T17:29:58.124Z,97959.50
2023-05-05T17:32:26.598Z,97958.23
2023-05-05T17:34:54.648Z,97962.95
2023-05-05T17:37:22.784Z,97969.72
2023-05-05T17:39:51.488Z,97970.06
2023-05-05T17:42:23.117Z,97969.17
2023-05-05T17:44:51.603Z,97972.58
2023-05-05T17:47:22.472Z,97976.54
2023-05-05T17:49:53.842Z,97976.79
2023-05-05T17:52:23.316Z,97978.16
2023-05-05T17:54:52.137Z,97982.02
2023-05-05T17:57:23.142Z,97987.75
2023-05-05T17:59:53.347Z,97986.14
2023-05-05T18:02:22.179Z,97988.34
2023-05-05T18:04:50.335Z,97990.66
2023-05-05T18:07:18.483Z,97999.27
2023-05-05T18:09:46.732Z,98004.48
2023-05-05T18:12:14.942Z,98008.98
2023-05-05T18:14:43.311Z,98010.98
2023-05-05T18:17:11.442Z,98012.13
2023-05-05T18:19:42.959Z,98014.15
2023-05-05T18:22:12.161Z,98015.39
2023-05-05T18:24:40.426Z,98019.36
2023-05-05T18:27:08.915Z,98023.27
2023-05-05T18:29:37.035Z,98027.10
2023-05-05T18:32:06.407Z,98024.85
2023-05-05T18:34:34.920Z,98026.13
2023-05-05T18:37:03.026Z,98031.66
2023-05-05T18:39:31.170Z,98032.63
2023-05-05T18:41:59.430Z,98034.11
2023-05-05T18:44:27.639Z,98038.95
2023-05-05T18:46:55.730Z,98040.77
2023-05-05T18:49:24.921Z,98042.58
2023-05-05T18:51:53.900Z,98042.92
2023-05-05T18:54:22.389Z,98048.77
2023-05-05T18:56:50.414Z,98048.80
2023-05-05T18:59:18.725Z,98050.02
2023-05-05T19:01:46.851Z,98051.73
2023-05-05T19:04:29.370Z,98051.40
2023-05-05T19:06:59.593Z,98052.70
2023-05-05T19:09:28.094Z,98051.45
2023-05-05T19:11:56.557Z,98050.43
2023-05-05T19:14:25.080Z,98054.39
2023-05-05T19:16:55.936Z,98052.75
2023-05-05T19:19:24.432Z,98052.86
2023-05-05T19:21:52.629Z,98048.19
2023-05-05T19:24:20.774Z,98048.20
2023-05-05T19:26:49.048Z,98050.54
2023-05-05T19:29:17.469Z,98050.02
2023-05-05T19:31:45.685Z,98050.20
2023-05-05T19:34:13.806Z,98052.53
2023-05-05T19:36:41.775Z,98054.27
2023-05-05T19:39:09.803Z,98053.36
2023-05-05T19:41:37.974Z,98049.70
2023-05-05T19:44:06.251Z,98052.34
2023-05-05T19:46:34.443Z,98051.36
2023-05-05T19:49:02.583Z,98053.33
2023-05-05T19:51:31.700Z,98053.34
2023-05-05T19:53:59.973Z,98052.90
2023-05-05T19:56:28.278Z,98057.00
2023-05-05T19:58:59.384Z,98061.00
2023-05-05T20:01:29.192Z,98061.02
2023-05-05T20:03:57.498Z,98056.81
2023-05-05T20:06:27.039Z,98056.66
2023-05-05T20:08:55.640Z,98059.59
2023-05-05T20:11:25.862Z,98059.23
2023-05-05T20:13:53.968Z,98059.45
2023-05-05T20:16:22.486Z,98059.23
2023-05-05T20:18:51.070Z,98057.08
2023-05-05T20:21:19.621Z,98053.60
2023-05-05T20:23:47.871Z,98056.52
2023-05-05T20:26:16.335Z,98054.05
2023-05-05T20:28:45.856Z,98056.98
2023-05-05T20:31:14.434Z,98057.65
2023-05-05T20:33:42.612Z,98055.95
2023-05-05T20:36:11.470Z,98052.56
2023-05-05T20:38:40.087Z,98057.70
2023-05-05T20:41:08.196Z,98055.02
2023-05-05T20:43:36.820Z,98055.23
2023-05-05T20:46:04.986Z,98053.61
2023-05-05T20:48:33.303Z,98052.74
2023-05-05T20:51:06.678Z,98051.89
2023-05-05T20:53:34.712Z,98052.27
2023-05-05T20:56:05.659Z,98049.73
2023-05-05T20:58:34.539Z,98053.95
2023-05-05T21:01:02.750Z,98056.70
2023-05-05T21:03:30.978Z,98054.01
2023-05-05T21:05:59.278Z,98053.06
2023-05-05T21:08:27.500Z,98053.37
2023-05-05T21:10:55.576Z,98055.27
2023-05-05T21:13:24.229Z,98058.23
2023-05-05T21:15:52.313Z,98058.73
2023-05-05T21:18:20.431Z,98055.48
2023-05-05T21:20:48.675Z,98057.67
2023-05-05T21:23:16.712Z,98060.27
2023-05-05T21:25:44.692Z,98058.63
2023-05-05T21:28:13.508Z,98061.36
2023-05-05T21:30:42.003Z,98065.09
2023-05-05T21:33:10.141Z,98064.84
2023-05-05T21:35:38.286Z,98066.98
2023-05-05T21:38:06.386Z,98061.43
2023-05-05T21:40:34.469Z,98060.34
2023-05-05T21:43:02.969Z,98062.30
2023-05-05T21:45:31.181Z,98061.05
2023-05-05T21:47:59.462Z,98059.17
2023-05-05T21:50:29.391Z,98058.84
2023-05-05T21:52:58.455Z,98060.02
2023-05-05T21:55:26.522Z,98060.46
2023-05-05T21:57:54.854Z,98058.59
2023-05-05T22:00:23.125Z,98060.92
2023-05-05T22:02:51.299Z,98057.68
2023-05-05T22:05:19.641Z,98060.17
2023-05-05T22:07:47.844Z,98060.52
2023-05-05T22:10:16.721Z,98060.48
2023-05-05T22:12:44.887Z,98059.69
2023-05-05T22:15:13.115Z,98060.80
2023-05-05T22:17:41.282Z,98058.05
2023-05-05T22:20:10.632Z,98056.06
2023-05-05T22:22:39.229Z,98054.47
2023-05-05T22:25:08.191Z,98053.88
2023-05-05T22:27:36.564Z,98053.27
2023-05-05T22:30:06.047Z,98049.08
2023-05-05T22:32:34.254Z,98049.02
2023-05-05T22:35:02.497Z,98048.66
2023-05-05T22:37:30.738Z,98045.31
2023-05-05T22:39:58.763Z,98043.58
2023-05-05T22:42:26.996Z,98046.30
2023-05-05T22:44:55.244Z,98048.94
2023-05-05T22:47:23.407Z,98048.81
2023-05-05T22:49:51.615Z,98049.00
2023-05-05T22:52:19.842Z,98050.85
2023-05-05T22:54:47.977Z,98048.20
2023-05-05T22:57:16.342Z,98045.17
2023-05-05T22:59:44.545Z,98041.67
2023-05-05T23:02:12.727Z,98040.40
2023-05-05T23:04:41.058Z,98041.27
2023-05-05T23:07:09.444Z,98039.45
2023-05-05T23:09:37.666Z,98042.77
2023-05-05T23:12:05.858Z,98041.86
2023-05-05T23:14:33.984Z,98047.52
2023-05-05T23:17:02.302Z,98046.81
2023-05-05T23:19:32.687Z,98042.37
2023-05-05T23:22:03.010Z,98041.00
2023-05-05T23:24:32.528Z,98037.70
2023-05-05T23:27:04.697Z,98036.80
2023-05-05T23:29:32.827Z,98040.66
2023-05-05T23:32:00.905Z,98040.67
2023-05-05T23:34:29.048Z,98038.41
2023-05-05T23:36:57.250Z,98034.23
2023-05-05T23:39:25.420Z,98033.04
2023-05-05T23:41:53.536Z,98035.29
2023-05-05T23:44:21.598Z,98033.11
2023-05-05T23:46:49.768Z,98031.21
2023-05-05T23:49:17.873Z,98030.91
2023-05-05T23:51:45.948Z,98030.34
2023-05-05T23:54:14.138Z,98026.41
2023-05-05T23:56:42.783Z,98022.92
2023-05-05T23:59:11.134Z,98023.58
